Time;durP1;ratioP1;P1;durP2;ratioP2;P2;SDS_P1;SDS_P2;PMS_P1;PMS_P2;Temp;Humidity;BMP_temperature;BMP_pressure;BME280_temperature;BME280_humidity;BME280_pressure;Samples;Min_cycle;Max_cycle;Signal;HPM_P1;HPM_P2
2023/07/14 00:01:50;;;;;;;30.80;12.30;;;;;;;;;;731697;188;919305;-57
2023/07/14 00:04:16;;;;;;;43.23;14.50;;;;;;;;;;741834;188;922509;-58
2023/07/14 00:06:41;;;;;;;26.37;13.80;;;;;;;;;;737006;187;915710;-57
2023/07/14 00:09:11;;;;;;;38.30;15.43;;;;;;;;;;736290;187;917044;-59
2023/07/14 00:11:37;;;;;;;37.67;12.47;;;;;;;;;;735864;188;919104;-58
2023/07/14 00:14:03;;;;;;;31.87;13.10;;;;;;;;;;741473;187;919038;-59
2023/07/14 00:16:29;;;;;;;35.23;14.00;;;;;;;;;;732462;187;919495;-58
2023/07/14 00:18:54;;;;;;;31.87;14.17;;;;;;;;;;736267;189;919408;-57
2023/07/14 00:21:22;;;;;;;30.27;13.17;;;;;;;;;;742593;188;919890;-58
2023/07/14 00:23:46;;;;;;;26.20;13.63;;;;;;;;;;740396;187;862090;-58
2023/07/14 00:26:14;;;;;;;22.65;13.70;;;;;;;;;;738134;189;818501;-58
2023/07/14 00:28:40;;;;;;;18.47;10.67;;;;;;;;;;735339;187;816087;-59
2023/07/14 00:31:06;;;;;;;29.53;14.57;;;;;;;;;;737271;189;919136;-58
2023/07/14 00:33:31;;;;;;;26.85;12.70;;;;;;;;;;739469;187;920347;-58
2023/07/14 00:35:57;;;;;;;17.60;10.70;;;;;;;;;;742464;187;817160;-58
2023/07/14 00:38:23;;;;;;;40.83;13.03;;;;;;;;;;741805;189;916581;-58
2023/07/14 00:40:49;;;;;;;27.27;11.40;;;;;;;;;;737153;188;918590;-59
2023/07/14 00:43:15;;;;;;;29.17;11.60;;;;;;;;;;731140;188;1021349;-58
2023/07/14 00:45:41;;;;;;;21.40;11.40;;;;;;;;;;734174;189;919051;-58
2023/07/14 00:48:06;;;;;;;25.67;11.35;;;;;;;;;;734783;189;919162;-58
2023/07/14 00:50:34;;;;;;;20.13;11.90;;;;;;;;;;736798;188;919834;-58
2023/07/14 00:53:00;;;;;;;38.70;15.10;;;;;;;;;;728787;191;923325;-60
2023/07/14 00:55:28;;;;;;;29.80;11.63;;;;;;;;;;725689;191;917458;-59
2023/07/14 00:57:54;;;;;;;29.50;14.80;;;;;;;;;;732214;188;891042;-58
2023/07/14 01:00:21;;;;;;;32.03;13.50;;;;;;;;;;737473;188;919021;-59
2023/07/14 01:02:47;;;;;;;37.88;12.18;;;;;;;;;;740535;188;918303;-58
2023/07/14 01:05:13;;;;;;;41.23;14.30;;;;;;;;;;735315;188;920104;-57
2023/07/14 01:07:38;;;;;;;40.10;13.37;;;;;;;;;;713409;195;919196;-58
2023/07/14 01:10:05;;;;;;;35.78;13.43;;;;;;;;;;712207;196;879514;-57
2023/07/14 01:12:31;;;;;;;34.00;15.23;;;;;;;;;;711436;195;919689;-58
2023/07/14 01:14:57;;;;;;;26.52;13.65;;;;;;;;;;739473;187;919519;-57
2023/07/14 01:17:22;;;;;;;28.27;13.70;;;;;;;;;;737241;188;922003;-58
2023/07/14 01:19:49;;;;;;;28.70;13.87;;;;;;;;;;737126;188;816926;-58
2023/07/14 01:22:20;;;;;;;33.90;14.38;;;;;;;;;;728762;188;918145;-60
2023/07/14 01:24:51;;;;;;;56.53;17.23;;;;;;;;;;729290;188;919353;-58
2023/07/14 01:27:17;;;;;;;45.70;16.43;;;;;;;;;;732871;188;873960;-59
2023/07/14 01:29:43;;;;;;;39.93;14.07;;;;;;;;;;743335;187;919160;-58
2023/07/14 01:32:08;;;;;;;59.70;14.63;;;;;;;;;;737048;188;818704;-58
2023/07/14 01:34:37;;;;;;;40.17;15.90;;;;;;;;;;735359;187;936009;-58
2023/07/14 01:37:00;;;;;;;45.87;15.87;;;;;;;;;;739074;189;915357;-60
2023/07/14 01:39:26;;;;;;;39.67;14.63;;;;;;;;;;734991;189;916141;-58
2023/07/14 01:41:52;;;;;;;34.70;13.97;;;;;;;;;;734694;187;819399;-58
2023/07/14 01:44:18;;;;;;;39.87;16.90;;;;;;;;;;746390;187;903161;-58
2023/07/14 01:46:43;;;;;;;24.33;13.73;;;;;;;;;;735722;187;916118;-59
2023/07/14 01:49:09;;;;;;;38.37;15.27;;;;;;;;;;733019;187;920011;-61
2023/07/14 01:51:38;;;;;;;28.03;15.70;;;;;;;;;;736854;187;818063;-59
2023/07/14 01:54:01;;;;;;;23.47;14.37;;;;;;;;;;728316;191;920427;-60
2023/07/14 01:56:27;;;;;;;27.53;15.10;;;;;;;;;;728975;186;916732;-58
2023/07/14 01:59:03;;;;;;;44.97;17.57;;;;;;;;;;736802;189;917494;-59
2023/07/14 02:01:29;;;;;;;25.27;15.10;;;;;;;;;;737436;188;819064;-59
2023/07/14 02:03:55;;;;;;;24.13;14.10;;;;;;;;;;715539;195;917895;-59
2023/07/14 02:06:21;;;;;;;25.80;15.33;;;;;;;;;;737708;188;919267;-60
2023/07/14 02:08:47;;;;;;;23.77;14.67;;;;;;;;;;738388;187;916699;-60
2023/07/14 02:11:17;;;;;;;33.93;14.73;;;;;;;;;;740955;189;916379;-60
2023/07/14 02:13:43;;;;;;;24.50;14.90;;;;;;;;;;740169;187;913600;-58
2023/07/14 02:16:09;;;;;;;38.60;17.47;;;;;;;;;;737057;188;912882;-58
2023/07/14 02:18:36;;;;;;;27.73;13.90;;;;;;;;;;737460;189;920110;-59
2023/07/14 02:21:01;;;;;;;24.80;12.97;;;;;;;;;;746558;186;920091;-61
2023/07/14 02:23:27;;;;;;;33.93;14.23;;;;;;;;;;723842;192;919416;-59
2023/07/14 02:25:58;;;;;;;30.07;13.47;;;;;;;;;;737895;187;919933;-60
2023/07/14 02:28:23;;;;;;;35.17;13.70;;;;;;;;;;741625;189;814791;-60
2023/07/14 02:30:49;;;;;;;23.20;12.60;;;;;;;;;;734517;188;919946;-58
2023/07/14 02:33:15;;;;;;;43.27;13.90;;;;;;;;;;740951;188;920038;-59
2023/07/14 02:35:43;;;;;;;26.47;14.23;;;;;;;;;;738438;188;918652;-59
2023/07/14 02:38:17;;;;;;;51.83;14.20;;;;;;;;;;743564;187;918373;-60
2023/07/14 02:40:45;;;;;;;24.90;12.90;;;;;;;;;;741385;187;922516;-59
2023/07/14 02:43:11;;;;;;;24.87;12.03;;;;;;;;;;736743;187;918149;-58
2023/07/14 02:45:38;;;;;;;42.92;14.55;;;;;;;;;;738842;188;927344;-59
2023/07/14 02:48:04;;;;;;;25.83;12.67;;;;;;;;;;744103;185;919217;-58
2023/07/14 02:50:30;;;;;;;32.77;14.37;;;;;;;;;;734490;187;917926;-58
2023/07/14 02:52:56;;;;;;;34.70;12.20;;;;;;;;;;736005;187;918589;-58
2023/07/14 02:55:21;;;;;;;17.63;11.30;;;;;;;;;;739910;187;920929;-59
2023/07/14 02:57:47;;;;;;;22.83;12.23;;;;;;;;;;734748;187;921225;-59
2023/07/14 03:00:15;;;;;;;29.60;13.85;;;;;;;;;;734282;188;911674;-57
2023/07/14 03:02:39;;;;;;;33.00;14.83;;;;;;;;;;740729;189;820302;-59
2023/07/14 03:05:06;;;;;;;28.57;10.63;;;;;;;;;;718135;193;818513;-58
2023/07/14 03:07:34;;;;;;;16.50;11.37;;;;;;;;;;731062;189;923392;-58
2023/07/14 03:09:58;;;;;;;21.77;11.65;;;;;;;;;;734704;187;920707;-59
2023/07/14 03:12:24;;;;;;;24.07;13.17;;;;;;;;;;741846;187;913954;-56
2023/07/14 03:14:50;;;;;;;36.23;11.27;;;;;;;;;;742496;186;919097;-59
2023/07/14 03:17:15;;;;;;;27.20;11.90;;;;;;;;;;743973;186;918324;-59
2023/07/14 03:19:41;;;;;;;40.70;11.57;;;;;;;;;;743106;188;864035;-59
2023/07/14 03:22:07;;;;;;;42.93;12.07;;;;;;;;;;735989;187;816648;-57
2023/07/14 03:24:33;;;;;;;52.10;12.88;;;;;;;;;;738698;187;825839;-57
2023/07/14 03:26:59;;;;;;;34.07;11.73;;;;;;;;;;743630;188;919301;-57
2023/07/14 03:29:25;;;;;;;81.30;13.60;;;;;;;;;;733368;190;915909;-58
2023/07/14 03:31:50;;;;;;;69.05;14.13;;;;;;;;;;735031;188;918479;-60
2023/07/14 03:34:16;;;;;;;38.00;12.83;;;;;;;;;;740658;188;870487;-57
2023/07/14 03:36:42;;;;;;;22.73;14.33;;;;;;;;;;729639;189;920104;-59
2023/07/14 03:39:24;;;;;;;23.67;13.50;;;;;;;;;;708713;195;919089;-58
2023/07/14 03:41:49;;;;;;;29.20;13.57;;;;;;;;;;731540;189;919447;-58
2023/07/14 03:44:15;;;;;;;30.53;15.13;;;;;;;;;;730724;189;921191;-60
2023/07/14 03:46:40;;;;;;;37.43;14.03;;;;;;;;;;738908;189;919369;-60
2023/07/14 03:49:06;;;;;;;29.37;13.57;;;;;;;;;;730054;189;919374;-58
2023/07/14 03:51:32;;;;;;;24.55;13.00;;;;;;;;;;730939;189;920659;-60
2023/07/14 03:53:58;;;;;;;27.97;13.70;;;;;;;;;;738117;189;928724;-60
2023/07/14 03:56:24;;;;;;;26.70;13.80;;;;;;;;;;709331;195;915634;-58
2023/07/14 03:58:50;;;;;;;34.23;17.40;;;;;;;;;;731775;188;922143;-59
2023/07/14 04:01:15;;;;;;;22.60;13.30;;;;;;;;;;739535;187;916183;-59
2023/07/14 04:03:41;;;;;;;23.17;12.73;;;;;;;;;;733146;189;914849;-60
2023/07/14 04:06:07;;;;;;;24.17;14.83;;;;;;;;;;742074;188;919523;-57
2023/07/14 04:08:35;;;;;;;22.13;13.33;;;;;;;;;;732497;189;905432;-58
2023/07/14 04:11:01;;;;;;;30.87;14.20;;;;;;;;;;729194;189;815190;-58
2023/07/14 04:13:26;;;;;;;24.07;13.47;;;;;;;;;;739270;187;819610;-59
2023/07/14 04:15:52;;;;;;;20.08;12.48;;;;;;;;;;735121;189;919192;-59
2023/07/14 04:18:18;;;;;;;26.27;12.70;;;;;;;;;;745005;187;940661;-58
2023/07/14 04:20:44;;;;;;;25.93;11.97;;;;;;;;;;734314;189;918559;-61
2023/07/14 04:23:10;;;;;;;27.00;12.20;;;;;;;;;;713386;195;818079;-60
2023/07/14 04:25:36;;;;;;;22.40;11.07;;;;;;;;;;738761;188;919544;-59
2023/07/14 04:28:02;;;;;;;23.13;13.67;;;;;;;;;;730434;188;919761;-59
2023/07/14 04:30:27;;;;;;;18.27;12.10;;;;;;;;;;734316;187;919433;-59
2023/07/14 04:32:56;;;;;;;16.17;10.63;;;;;;;;;;737152;187;919195;-60
2023/07/14 04:35:19;;;;;;;29.40;11.43;;;;;;;;;;738941;188;919342;-59
2023/07/14 04:37:45;;;;;;;16.83;11.00;;;;;;;;;;746922;187;916016;-60
2023/07/14 04:40:11;;;;;;;15.50;10.90;;;;;;;;;;743019;187;917064;-61
2023/07/14 04:42:37;;;;;;;17.13;10.63;;;;;;;;;;743300;188;911708;-58
2023/07/14 04:45:03;;;;;;;24.63;11.13;;;;;;;;;;732831;189;917954;-60
2023/07/14 04:47:29;;;;;;;19.97;9.53;;;;;;;;;;735069;188;918941;-60
2023/07/14 04:49:55;;;;;;;14.53;10.30;;;;;;;;;;741616;188;918649;-58
2023/07/14 04:52:21;;;;;;;14.67;11.30;;;;;;;;;;735947;188;919729;-62
2023/07/14 04:54:46;;;;;;;14.57;10.77;;;;;;;;;;737206;187;920662;-62
2023/07/14 04:57:13;;;;;;;15.10;10.57;;;;;;;;;;739613;187;921792;-61
2023/07/14 04:59:38;;;;;;;18.60;11.33;;;;;;;;;;734010;189;919065;-59
2023/07/14 05:02:05;;;;;;;16.07;11.17;;;;;;;;;;740468;187;919575;-62
2023/07/14 05:04:30;;;;;;;18.63;10.70;;;;;;;;;;732891;189;850140;-62
2023/07/14 05:06:56;;;;;;;25.77;10.70;;;;;;;;;;716880;194;932896;-59
2023/07/14 05:09:22;;;;;;;14.57;9.73;;;;;;;;;;728161;188;919585;-61
2023/07/14 05:11:48;;;;;;;18.65;9.75;;;;;;;;;;731408;189;919796;-62
2023/07/14 05:14:13;;;;;;;17.10;8.77;;;;;;;;;;717851;194;912713;-59
2023/07/14 05:16:39;;;;;;;23.10;9.53;;;;;;;;;;726418;188;921120;-60
2023/07/14 05:19:05;;;;;;;18.80;10.40;;;;;;;;;;730147;189;919895;-60
2023/07/14 05:21:31;;;;;;;17.30;10.60;;;;;;;;;;739959;187;922134;-58
2023/07/14 05:23:57;;;;;;;15.60;10.53;;;;;;;;;;731528;189;876485;-59
2023/07/14 05:26:23;;;;;;;16.90;10.20;;;;;;;;;;715378;194;917932;-60
2023/07/14 05:28:49;;;;;;;15.87;10.33;;;;;;;;;;706446;195;815395;-63
2023/07/14 05:31:14;;;;;;;12.13;9.03;;;;;;;;;;732696;189;918182;-63
2023/07/14 05:33:40;;;;;;;18.63;10.43;;;;;;;;;;732725;188;915413;-60
2023/07/14 05:36:06;;;;;;;17.03;9.83;;;;;;;;;;736871;187;920420;-64
2023/07/14 05:38:32;;;;;;;14.07;10.23;;;;;;;;;;744719;188;816825;-62
2023/07/14 05:40:58;;;;;;;14.23;10.50;;;;;;;;;;737273;189;913868;-61
2023/07/14 05:43:24;;;;;;;25.63;14.17;;;;;;;;;;741590;187;919259;-61
2023/07/14 05:45:50;;;;;;;19.00;11.30;;;;;;;;;;739151;188;919961;-64
2023/07/14 05:48:17;;;;;;;20.23;12.10;;;;;;;;;;733923;188;919265;-63
2023/07/14 05:50:42;;;;;;;18.53;11.50;;;;;;;;;;723981;191;891288;-61
2023/07/14 05:53:08;;;;;;;16.03;10.77;;;;;;;;;;740582;187;917071;-63
2023/07/14 05:55:34;;;;;;;19.70;10.67;;;;;;;;;;735443;189;916450;-65
2023/07/14 05:58:00;;;;;;;14.20;9.87;;;;;;;;;;735821;188;915773;-63
2023/07/14 06:00:26;;;;;;;17.23;10.00;;;;;;;;;;729042;188;921799;-67
2023/07/14 06:02:51;;;;;;;18.73;10.17;;;;;;;;;;734871;189;915803;-64
2023/07/14 06:05:19;;;;;;;15.07;10.00;;;;;;;;;;737441;188;938441;-61
2023/07/14 06:07:43;;;;;;;12.80;10.17;;;;;;;;;;736561;188;815990;-66
2023/07/14 06:10:09;;;;;;;16.93;10.80;;;;;;;;;;738591;189;915374;-61
2023/07/14 06:12:35;;;;;;;17.77;9.90;;;;;;;;;;735171;189;724059;-66
2023/07/14 06:15:01;;;;;;;23.97;9.20;;;;;;;;;;737386;189;918546;-59
2023/07/14 06:17:27;;;;;;;16.03;9.60;;;;;;;;;;742195;187;818207;-61
2023/07/14 06:19:53;;;;;;;17.93;10.30;;;;;;;;;;743587;186;923620;-60
2023/07/14 06:22:20;;;;;;;11.80;9.20;;;;;;;;;;742014;187;941385;-60
2023/07/14 06:24:44;;;;;;;20.50;10.37;;;;;;;;;;734273;189;816177;-60
2023/07/14 06:27:10;;;;;;;13.23;9.53;;;;;;;;;;714843;194;919400;-59
2023/07/14 06:29:36;;;;;;;15.40;9.80;;;;;;;;;;704926;195;919234;-64
2023/07/14 06:32:02;;;;;;;20.40;10.23;;;;;;;;;;735222;188;919008;-60
2023/07/14 06:34:28;;;;;;;18.20;9.33;;;;;;;;;;738491;189;918604;-60
2023/07/14 06:36:54;;;;;;;11.93;9.23;;;;;;;;;;735334;189;918518;-65
2023/07/14 06:39:20;;;;;;;14.37;9.50;;;;;;;;;;710336;194;1021940;-65
2023/07/14 06:41:46;;;;;;;12.10;8.60;;;;;;;;;;729921;189;923510;-65
2023/07/14 06:44:11;;;;;;;12.80;9.13;;;;;;;;;;744028;184;919461;-59
2023/07/14 06:46:37;;;;;;;14.80;7.47;;;;;;;;;;741521;187;919564;-61
2023/07/14 06:49:03;;;;;;;12.10;7.50;;;;;;;;;;734253;188;1029642;-60
2023/07/14 06:51:29;;;;;;;10.87;7.43;;;;;;;;;;740061;189;915830;-66
2023/07/14 06:53:55;;;;;;;19.43;7.43;;;;;;;;;;736136;188;871063;-63
2023/07/14 06:56:21;;;;;;;14.70;7.43;;;;;;;;;;736243;188;922528;-65
2023/07/14 06:58:46;;;;;;;7.30;5.27;;;;;;;;;;741187;188;921033;-60
2023/07/14 07:01:12;;;;;;;7.33;5.17;;;;;;;;;;736230;188;920137;-66
2023/07/14 07:03:38;;;;;;;10.57;5.83;;;;;;;;;;740053;187;920277;-65
2023/07/14 07:06:04;;;;;;;8.27;5.60;;;;;;;;;;745420;187;834272;-60
2023/07/14 07:08:30;;;;;;;7.93;5.73;;;;;;;;;;732683;187;913436;-65
2023/07/14 07:10:56;;;;;;;10.40;4.83;;;;;;;;;;735827;187;927704;-61
2023/07/14 07:13:21;;;;;;;6.50;5.37;;;;;;;;;;718923;193;925495;-63
2023/07/14 07:15:48;;;;;;;5.57;5.00;;;;;;;;;;740555;188;873958;-60
2023/07/14 07:18:13;;;;;;;6.03;4.50;;;;;;;;;;736821;187;919468;-59
2023/07/14 07:20:41;;;;;;;5.87;4.70;;;;;;;;;;737189;187;901150;-63
2023/07/14 07:23:07;;;;;;;6.87;4.80;;;;;;;;;;742184;189;917473;-65
2023/07/14 07:25:33;;;;;;;6.30;4.53;;;;;;;;;;716376;194;953884;-61
2023/07/14 07:27:59;;;;;;;8.00;4.35;;;;;;;;;;719196;192;927480;-64
2023/07/14 07:30:25;;;;;;;4.03;3.20;;;;;;;;;;744214;187;922287;-60
2023/07/14 07:32:50;;;;;;;8.30;4.13;;;;;;;;;;741615;187;620324;-65
2023/07/14 07:35:17;;;;;;;5.03;3.23;;;;;;;;;;732679;189;920518;-60
2023/07/14 07:37:42;;;;;;;5.00;3.30;;;;;;;;;;734269;189;919483;-66
2023/07/14 07:40:09;;;;;;;4.87;3.22;;;;;;;;;;716416;195;943762;-60
2023/07/14 07:42:35;;;;;;;5.80;2.80;;;;;;;;;;722217;191;919053;-66
2023/07/14 07:45:01;;;;;;;6.97;3.93;;;;;;;;;;727288;189;918545;-65
2023/07/14 07:47:26;;;;;;;5.10;3.63;;;;;;;;;;736606;189;816190;-61
2023/07/14 07:49:52;;;;;;;5.77;3.70;;;;;;;;;;736897;189;822723;-62
2023/07/14 07:52:18;;;;;;;5.03;3.53;;;;;;;;;;748609;187;626195;-64
2023/07/14 07:54:44;;;;;;;6.10;2.87;;;;;;;;;;744033;187;624838;-65
2023/07/14 07:57:10;;;;;;;5.97;4.03;;;;;;;;;;738842;189;617739;-60
2023/07/14 07:59:36;;;;;;;4.43;3.20;;;;;;;;;;735917;187;711265;-61
2023/07/14 08:02:01;;;;;;;6.60;4.23;;;;;;;;;;737716;188;919138;-65
2023/07/14 08:04:27;;;;;;;7.62;4.10;;;;;;;;;;723367;194;917531;-60
2023/07/14 08:06:53;;;;;;;4.67;3.43;;;;;;;;;;735628;187;914823;-65
2023/07/14 08:09:19;;;;;;;5.40;3.70;;;;;;;;;;738076;187;919134;-65
2023/07/14 08:11:45;;;;;;;8.50;4.23;;;;;;;;;;741104;189;919664;-66
2023/07/14 08:14:11;;;;;;;12.00;5.40;;;;;;;;;;719940;192;917850;-66
2023/07/14 08:16:37;;;;;;;5.73;4.53;;;;;;;;;;717451;191;918033;-61
2023/07/14 08:19:03;;;;;;;5.27;4.20;;;;;;;;;;722214;191;921249;-61
2023/07/14 08:21:30;;;;;;;6.50;4.33;;;;;;;;;;722042;191;810822;-61
2023/07/14 08:23:54;;;;;;;6.80;4.37;;;;;;;;;;719378;194;619132;-66
2023/07/14 08:26:20;;;;;;;6.67;4.30;;;;;;;;;;714432;193;917488;-65
2023/07/14 08:28:46;;;;;;;10.23;4.57;;;;;;;;;;717230;194;949538;-62
2023/07/14 08:31:12;;;;;;;7.93;5.37;;;;;;;;;;719442;194;918339;-67
2023/07/14 08:33:42;;;;;;;5.30;4.30;;;;;;;;;;743104;187;919208;-65
2023/07/14 08:36:03;;;;;;;7.47;4.97;;;;;;;;;;741498;188;862480;-66
2023/07/14 08:38:30;;;;;;;12.63;4.90;;;;;;;;;;735408;187;921439;-65
2023/07/14 08:40:56;;;;;;;9.52;4.50;;;;;;;;;;735481;187;920410;-59
2023/07/14 08:43:35;;;;;;;7.20;4.17;;;;;;;;;;736908;188;918799;-61
2023/07/14 08:46:00;;;;;;;6.17;4.10;;;;;;;;;;744847;187;919177;-66
2023/07/14 08:48:27;;;;;;;6.20;3.70;;;;;;;;;;740965;187;823701;-65
2023/07/14 08:50:53;;;;;;;4.37;3.50;;;;;;;;;;734737;189;901977;-66
2023/07/14 08:53:19;;;;;;;17.30;4.43;;;;;;;;;;716798;195;918975;-60
2023/07/14 08:55:45;;;;;;;4.73;3.83;;;;;;;;;;735132;188;915928;-65
2023/07/14 08:58:12;;;;;;;9.80;3.60;;;;;;;;;;735520;190;817931;-60
2023/07/14 09:00:38;;;;;;;5.10;2.73;;;;;;;;;;736237;189;919480;-60
2023/07/14 09:03:19;;;;;;;5.20;3.43;;;;;;;;;;718402;194;925477;-59
2023/07/14 09:05:45;;;;;;;6.53;3.60;;;;;;;;;;715124;193;816828;-58
2023/07/14 09:08:12;;;;;;;6.33;3.03;;;;;;;;;;734821;189;635921;-66
2023/07/14 09:10:40;;;;;;;7.50;3.30;;;;;;;;;;741396;188;626647;-66
2023/07/14 09:13:08;;;;;;;6.30;3.63;;;;;;;;;;744752;188;645551;-66
2023/07/14 09:15:32;;;;;;;5.60;2.73;;;;;;;;;;739506;186;837117;-64
2023/07/14 09:18:02;;;;;;;5.47;2.97;;;;;;;;;;739861;188;909787;-65
2023/07/14 09:20:29;;;;;;;7.10;3.03;;;;;;;;;;740451;187;635422;-60
2023/07/14 09:22:55;;;;;;;6.77;3.07;;;;;;;;;;750610;187;633042;-67
2023/07/14 09:25:21;;;;;;;5.20;3.47;;;;;;;;;;738797;187;921152;-60
2023/07/14 09:27:47;;;;;;;5.00;3.37;;;;;;;;;;735849;188;913990;-65
2023/07/14 09:30:14;;;;;;;12.07;3.47;;;;;;;;;;742110;189;633019;-60
2023/07/14 09:32:40;;;;;;;8.80;3.27;;;;;;;;;;738031;186;635262;-64
2023/07/14 09:35:17;;;;;;;7.80;3.00;;;;;;;;;;740587;188;637023;-66
2023/07/14 09:37:47;;;;;;;8.70;3.00;;;;;;;;;;739032;189;629095;-67
2023/07/14 09:40:17;;;;;;;4.77;2.70;;;;;;;;;;740722;189;625801;-61
2023/07/14 09:42:40;;;;;;;7.43;3.20;;;;;;;;;;725552;193;614006;-66
2023/07/14 09:45:23;;;;;;;4.40;2.60;;;;;;;;;;722727;192;619985;-61
2023/07/14 09:47:50;;;;;;;6.30;3.13;;;;;;;;;;736588;187;713941;-61
2023/07/14 09:50:16;;;;;;;6.13;2.90;;;;;;;;;;739048;188;633689;-64
2023/07/14 09:52:47;;;;;;;4.23;2.37;;;;;;;;;;740095;187;619968;-66
2023/07/14 09:55:13;;;;;;;3.83;2.70;;;;;;;;;;743514;187;627116;-60
2023/07/14 09:57:40;;;;;;;4.93;3.20;;;;;;;;;;746473;187;613531;-61
2023/07/14 10:00:13;;;;;;;4.50;2.60;;;;;;;;;;740823;187;624038;-66
2023/07/14 10:02:32;;;;;;;5.47;2.77;;;;;;;;;;735542;187;635562;-60
2023/07/14 10:04:59;;;;;;;3.97;2.50;;;;;;;;;;734837;189;658869;-66
2023/07/14 10:07:34;;;;;;;5.63;2.83;;;;;;;;;;744154;187;624760;-61
2023/07/14 10:09:59;;;;;;;6.68;2.95;;;;;;;;;;746471;187;613191;-66
2023/07/14 10:12:25;;;;;;;4.70;2.50;;;;;;;;;;747726;187;610603;-61
2023/07/14 10:14:51;;;;;;;5.00;2.67;;;;;;;;;;739885;187;609394;-62
2023/07/14 10:17:21;;;;;;;4.63;2.73;;;;;;;;;;738550;189;624250;-65
2023/07/14 10:19:47;;;;;;;4.13;2.50;;;;;;;;;;714097;195;923757;-60
2023/07/14 10:22:13;;;;;;;4.33;2.50;;;;;;;;;;716245;194;630633;-61
2023/07/14 10:24:39;;;;;;;4.60;3.00;;;;;;;;;;726635;190;860164;-62
2023/07/14 10:27:08;;;;;;;4.23;3.13;;;;;;;;;;734151;191;914971;-66
2023/07/14 10:29:37;;;;;;;4.07;2.60;;;;;;;;;;713800;192;635706;-62
2023/07/14 10:32:04;;;;;;;4.70;3.00;;;;;;;;;;739452;188;642517;-62
2023/07/14 10:34:41;;;;;;;4.27;2.30;;;;;;;;;;736315;188;916296;-67
2023/07/14 10:37:09;;;;;;;3.50;2.80;;;;;;;;;;736532;188;762562;-67
2023/07/14 10:39:36;;;;;;;5.80;3.10;;;;;;;;;;743805;188;685337;-67
2023/07/14 10:42:00;;;;;;;4.47;2.53;;;;;;;;;;734569;189;926980;-62
2023/07/14 10:44:28;;;;;;;4.43;2.43;;;;;;;;;;734801;187;867026;-62
2023/07/14 10:46:55;;;;;;;4.50;2.30;;;;;;;;;;720952;194;928455;-67
2023/07/14 10:49:22;;;;;;;4.77;2.67;;;;;;;;;;722766;191;922407;-67
2023/07/14 10:51:48;;;;;;;3.43;2.20;;;;;;;;;;732473;187;914661;-61
2023/07/14 10:54:17;;;;;;;3.40;2.47;;;;;;;;;;740570;187;915495;-65
2023/07/14 10:56:43;;;;;;;5.40;2.53;;;;;;;;;;739809;188;890853;-61
2023/07/14 10:59:13;;;;;;;4.60;2.60;;;;;;;;;;740694;187;919498;-61
2023/07/14 11:01:36;;;;;;;9.10;2.80;;;;;;;;;;731898;189;935957;-63
2023/07/14 11:04:02;;;;;;;4.03;2.40;;;;;;;;;;737943;189;918807;-61
2023/07/14 11:06:29;;;;;;;5.00;2.07;;;;;;;;;;738325;186;929630;-61
2023/07/14 11:08:54;;;;;;;4.37;3.00;;;;;;;;;;727211;188;919390;-60
2023/07/14 11:11:22;;;;;;;4.37;2.40;;;;;;;;;;733167;188;919162;-61
2023/07/14 11:13:54;;;;;;;3.50;2.20;;;;;;;;;;740736;189;925065;-60
2023/07/14 11:16:25;;;;;;;3.77;2.70;;;;;;;;;;734783;189;922435;-60
2023/07/14 11:19:07;;;;;;;4.20;2.50;;;;;;;;;;734268;189;821115;-59
2023/07/14 11:21:36;;;;;;;5.63;2.50;;;;;;;;;;732454;188;821251;-67
2023/07/14 11:24:02;;;;;;;3.08;1.85;;;;;;;;;;734438;187;911525;-67
2023/07/14 11:26:28;;;;;;;3.47;2.47;;;;;;;;;;732219;192;639522;-67
2023/07/14 11:28:59;;;;;;;5.90;2.57;;;;;;;;;;718115;194;629403;-60
2023/07/14 11:31:28;;;;;;;3.73;2.47;;;;;;;;;;733898;188;914980;-61
2023/07/14 11:34:00;;;;;;;4.53;2.47;;;;;;;;;;735237;187;918919;-66
2023/07/14 11:36:26;;;;;;;4.00;2.50;;;;;;;;;;747935;187;629135;-66
2023/07/14 11:38:53;;;;;;;4.23;2.13;;;;;;;;;;740477;186;637737;-62
2023/07/14 11:41:19;;;;;;;7.07;2.80;;;;;;;;;;743962;187;645124;-60
2023/07/14 11:43:45;;;;;;;3.60;2.80;;;;;;;;;;742605;187;635522;-64
2023/07/14 11:46:13;;;;;;;8.40;2.57;;;;;;;;;;745586;187;634989;-60
2023/07/14 11:48:36;;;;;;;5.70;2.73;;;;;;;;;;742971;187;624148;-59
2023/07/14 11:51:05;;;;;;;5.33;2.40;;;;;;;;;;745188;186;628438;-66
2023/07/14 11:53:33;;;;;;;3.80;2.50;;;;;;;;;;746747;188;625550;-66
2023/07/14 11:55:59;;;;;;;4.97;2.43;;;;;;;;;;733497;188;628752;-66
2023/07/14 11:58:26;;;;;;;5.57;2.00;;;;;;;;;;741865;188;622330;-61
2023/07/14 12:00:53;;;;;;;3.70;2.33;;;;;;;;;;742413;188;616963;-65
2023/07/14 12:03:24;;;;;;;3.97;2.17;;;;;;;;;;734450;190;615878;-60
2023/07/14 12:05:50;;;;;;;3.37;1.93;;;;;;;;;;743930;187;613652;-61
2023/07/14 12:08:21;;;;;;;3.67;2.10;;;;;;;;;;743922;187;622787;-60
2023/07/14 12:10:46;;;;;;;7.00;1.97;;;;;;;;;;740021;189;623515;-65
2023/07/14 12:13:31;;;;;;;3.47;2.30;;;;;;;;;;740076;189;625146;-66
2023/07/14 12:16:06;;;;;;;3.20;2.10;;;;;;;;;;722535;193;622973;-60
2023/07/14 12:18:31;;;;;;;5.73;2.30;;;;;;;;;;735884;188;625978;-60
2023/07/14 12:21:03;;;;;;;4.30;2.27;;;;;;;;;;739293;188;630219;-64
2023/07/14 12:23:29;;;;;;;4.37;2.00;;;;;;;;;;740125;188;626276;-61
2023/07/14 12:25:57;;;;;;;3.70;2.07;;;;;;;;;;744327;188;624147;-66
2023/07/14 12:28:22;;;;;;;6.87;2.40;;;;;;;;;;730840;188;629378;-61
2023/07/14 12:30:49;;;;;;;3.93;2.20;;;;;;;;;;740535;187;633925;-60
2023/07/14 12:33:14;;;;;;;4.77;1.90;;;;;;;;;;742415;187;619080;-66
2023/07/14 12:35:40;;;;;;;4.90;2.50;;;;;;;;;;738985;189;616774;-67
2023/07/14 12:38:08;;;;;;;4.43;2.10;;;;;;;;;;739966;187;919594;-60
2023/07/14 12:40:34;;;;;;;4.33;2.27;;;;;;;;;;734808;189;911573;-61
2023/07/14 12:43:00;;;;;;;3.60;2.53;;;;;;;;;;726372;191;921372;-60
2023/07/14 12:45:26;;;;;;;4.37;3.13;;;;;;;;;;710617;194;916023;-62
2023/07/14 12:47:52;;;;;;;3.70;2.30;;;;;;;;;;712840;194;920371;-60
2023/07/14 12:50:19;;;;;;;4.77;2.70;;;;;;;;;;732910;191;918658;-59
2023/07/14 12:52:44;;;;;;;3.40;1.83;;;;;;;;;;714476;194;916800;-60
2023/07/14 12:55:11;;;;;;;5.33;2.47;;;;;;;;;;739157;187;919131;-60
2023/07/14 12:57:37;;;;;;;4.87;2.60;;;;;;;;;;739164;187;918306;-65
2023/07/14 13:00:20;;;;;;;5.13;2.13;;;;;;;;;;738293;188;918762;-66
2023/07/14 13:02:45;;;;;;;3.77;2.27;;;;;;;;;;740116;187;814143;-65
2023/07/14 13:05:12;;;;;;;6.30;2.60;;;;;;;;;;735738;187;921499;-64
2023/07/14 13:07:37;;;;;;;5.67;2.30;;;;;;;;;;735853;188;920633;-60
2023/07/14 13:10:07;;;;;;;3.90;2.90;;;;;;;;;;742229;188;819008;-65
2023/07/14 13:12:33;;;;;;;11.77;4.13;;;;;;;;;;734380;188;919161;-65
2023/07/14 13:15:00;;;;;;;3.13;2.43;;;;;;;;;;736806;189;921010;-60
2023/07/14 13:17:24;;;;;;;6.00;2.50;;;;;;;;;;736621;189;915661;-59
2023/07/14 13:19:50;;;;;;;6.87;3.37;;;;;;;;;;737027;189;812257;-60
2023/07/14 13:22:17;;;;;;;5.87;2.93;;;;;;;;;;736626;189;917951;-59
2023/07/14 13:24:43;;;;;;;3.10;1.93;;;;;;;;;;717252;192;919592;-64
2023/07/14 13:27:09;;;;;;;4.30;2.30;;;;;;;;;;720691;193;815785;-64
2023/07/14 13:29:34;;;;;;;4.30;2.73;;;;;;;;;;737324;187;919368;-64
2023/07/14 13:32:01;;;;;;;5.30;2.60;;;;;;;;;;736712;187;924187;-64
2023/07/14 13:34:28;;;;;;;5.77;2.27;;;;;;;;;;736245;188;859327;-65
2023/07/14 13:36:54;;;;;;;3.50;2.60;;;;;;;;;;734825;189;820159;-65
2023/07/14 13:39:22;;;;;;;3.87;2.53;;;;;;;;;;739152;189;915835;-65
2023/07/14 13:41:48;;;;;;;4.53;2.57;;;;;;;;;;733694;189;909379;-64
2023/07/14 13:44:20;;;;;;;5.43;2.90;;;;;;;;;;738459;187;816452;-65
2023/07/14 13:46:46;;;;;;;4.37;2.70;;;;;;;;;;740780;187;819850;-65
2023/07/14 13:49:12;;;;;;;3.80;2.50;;;;;;;;;;734714;187;922181;-65
2023/07/14 13:51:38;;;;;;;5.00;2.40;;;;;;;;;;735924;191;821093;-65
2023/07/14 13:54:03;;;;;;;6.53;3.50;;;;;;;;;;734849;188;919130;-65
2023/07/14 13:56:29;;;;;;;6.57;3.10;;;;;;;;;;730922;188;919331;-64
2023/07/14 13:58:55;;;;;;;6.60;3.70;;;;;;;;;;742906;188;919115;-65
2023/07/14 14:01:21;;;;;;;5.60;2.80;;;;;;;;;;736120;188;922077;-64
2023/07/14 14:03:48;;;;;;;3.80;2.63;;;;;;;;;;734594;188;1125725;-65
2023/07/14 14:06:13;;;;;;;3.93;2.70;;;;;;;;;;740389;186;1021730;-65
2023/07/14 14:08:40;;;;;;;3.80;3.03;;;;;;;;;;737171;189;922835;-65
2023/07/14 14:11:05;;;;;;;3.20;2.47;;;;;;;;;;736633;188;920761;-65
2023/07/14 14:13:31;;;;;;;227.50;52.87;;;;;;;;;;740966;188;815518;-65
2023/07/14 14:15:57;;;;;;;5.80;3.00;;;;;;;;;;716361;194;920504;-65